Terminal Aerodrome Forecast
Issued by NWS Shreveport, LA

Home | Current Version | Previous Version | Text Only | Print | Product List | Glossary On
Versions: 1 2 3 4 5 6 7 8 9 10 11 12 13 14 15 16
000
FTUS44 KSHV 180500
TAFTXK
TAF
KTXK 180535Z 1806/1906 VRB03KT P6SM BKN060 OVC080
     FM181000 VRB03KT 3SM BR BKN010
      TEMPO 1810/1813 00000KT 1SM BR BKN005
     FM181600 VRB04KT P6SM FEW035 BKN250
     FM181900 18005KT P6SM VCTS BKN050CB BKN150
     FM190300 14003KT P6SM BKN060 BKN120=

USA.gov is the U.S. government's official web portal to all federal, state and local government web resources and services.